Terminal Aerodrome Forecast
Issued by NWS

Current Version | Previous Version | Text Only | Print | Product List | Glossary On
Versions: 1 2 3 4 5 6 7 8 9 10 11 12 13 14 15 16 17 18 19 20 21 22 23 24
000
FTUS43 KLSX 292328
TAFCPS
TAF
KCPS 292328Z 3000/3024 10012KT P6SM VCSH SCT025 BKN060
     FM300600 13012KT 5SM -SHRA VCTS OVC025CB
      TEMPO 3006/3009 2SM TSRA OVC015CB
     FM301100 16006KT P6SM VCSH OVC015
     FM301600 17013KT 5SM -SHRA VCTS BKN040CB
     FM302000 21008KT P6SM -SHRA VCTS BKN040CB=

USA.gov is the U.S. government's official web portal to all federal, state and local government web resources and services.